Time,TemperatureF,DewpointF,PressureIn,WindDirection,WindDirectionDegrees,WindSpeedMPH,WindSpeedGustMPH,Humidity,HourlyPrecipIn,Conditions,Clouds,dailyrainin,SoftwareType,DateUTC
2013-01-24 04:30:00,39.9,38.3,30.30,ENE,68,0.0,0.0,94,0.00,,CLR,0.00,VWS V14.01,2013-01-24 09:30:00,
2013-01-24 05:30:00,39.8,38.5,30.28,ENE,67,0.0,0.0,95,0.00,,CLR,0.00,VWS V14.01,2013-01-24 10:30:00,
2013-01-24 05:35:00,40.1,38.8,30.28,ENE,67,0.0,0.0,95,0.00,,CLR,0.00,VWS V14.01,2013-01-24 10:35:00,
2013-01-24 05:40:00,40.1,38.8,30.28,ENE,67,0.0,0.0,95,0.00,,CLR,0.00,VWS V14.01,2013-01-24 10:40:00,
2013-01-24 05:45:00,40.3,39.2,30.28,ENE,67,0.0,0.0,96,0.00,,CLR,0.00,VWS V14.01,2013-01-24 10:45:00,
2013-01-24 05:50:00,40.0,38.7,30.28,ENE,67,0.0,0.0,95,0.00,,CLR,0.00,VWS V14.01,2013-01-24 10:50:00,
2013-01-24 05:55:00,40.1,38.8,30.29,ENE,67,0.0,0.0,95,0.00,,CLR,0.00,VWS V14.01,2013-01-24 10:55:00,
2013-01-24 06:00:00,40.3,39.0,30.29,ENE,67,0.0,0.0,95,0.00,,CLR,0.00,VWS V14.01,2013-01-24 11:00:00,
2013-01-24 06:05:00,40.0,38.7,30.30,ENE,67,0.0,0.0,95,0.00,,CLR,0.00,VWS V14.01,2013-01-24 11:05:00,
2013-01-24 06:10:00,39.7,38.4,30.30,ENE,67,0.0,0.0,95,0.00,,CLR,0.00,VWS V14.01,2013-01-24 11:10:00,
2013-01-24 06:15:00,39.9,38.6,30.30,ENE,67,0.0,0.0,95,0.00,,CLR,0.00,VWS V14.01,2013-01-24 11:15:00,
2013-01-24 06:20:00,40.2,39.2,30.30,ENE,67,0.0,0.0,96,0.00,,CLR,0.00,VWS V14.01,2013-01-24 11:20:00,
2013-01-24 06:26:00,40.0,38.7,30.30,ENE,67,0.0,0.0,95,0.00,,CLR,0.00,VWS V14.01,2013-01-24 11:26:00,
2013-01-24 06:31:00,39.6,38.3,30.29,ENE,67,0.0,0.0,95,0.00,,CLR,0.00,VWS V14.01,2013-01-24 11:31:00,
2013-01-24 06:36:00,39.7,38.4,30.29,ENE,67,0.0,0.0,95,0.00,,CLR,0.00,VWS V14.01,2013-01-24 11:36:00,
2013-01-24 06:41:00,39.8,38.5,30.29,ENE,67,0.0,0.0,95,0.00,,CLR,0.00,VWS V14.01,2013-01-24 11:41:00,
2013-01-24 06:46:00,40.0,38.7,30.29,ENE,67,0.0,0.0,95,0.00,,CLR,0.00,VWS V14.01,2013-01-24 11:46:00,
2013-01-24 06:51:00,40.5,39.2,30.29,ENE,67,0.0,0.0,95,0.00,,CLR,0.00,VWS V14.01,2013-01-24 11:51:00,
2013-01-24 06:56:00,40.3,38.7,30.29,ENE,67,0.0,0.0,94,0.00,,CLR,0.00,VWS V14.01,2013-01-24 11:56:00,
2013-01-24 07:01:00,40.6,39.3,30.30,ENE,67,0.0,0.0,95,0.00,,CLR,0.00,VWS V14.01,2013-01-24 12:01:00,
2013-01-24 07:06:00,40.4,38.8,30.30,ENE,67,0.0,0.0,94,0.00,,CLR,0.00,VWS V14.01,2013-01-24 12:06:00,
2013-01-24 07:11:00,39.8,38.2,30.30,ENE,67,0.0,0.0,94,0.00,,CLR,0.00,VWS V14.01,2013-01-24 12:11:00,
2013-01-24 07:16:00,39.7,38.4,30.30,ENE,67,0.0,0.0,95,0.00,,CLR,0.00,VWS V14.01,2013-01-24 12:16:00,
2013-01-24 07:21:00,39.7,38.4,30.30,ENE,67,0.0,0.0,95,0.00,,CLR,0.00,VWS V14.01,2013-01-24 12:21:00,
2013-01-24 07:26:00,39.6,38.3,30.30,ENE,67,0.0,0.0,95,0.00,,CLR,0.00,VWS V14.01,2013-01-24 12:26:00,
2013-01-24 07:31:00,39.2,37.9,30.30,ENE,67,0.0,0.0,95,0.00,,CLR,0.00,VWS V14.01,2013-01-24 12:31:00,
2013-01-24 07:36:00,39.4,38.4,30.31,ENE,67,0.0,0.0,96,0.00,,CLR,0.00,VWS V14.01,2013-01-24 12:36:00,
2013-01-24 07:41:00,39.5,38.5,30.31,ENE,67,0.0,0.0,96,0.00,,CLR,0.00,VWS V14.01,2013-01-24 12:41:00,
2013-01-24 07:46:00,40.0,39.0,30.31,ENE,67,0.0,0.0,96,0.00,,CLR,0.00,VWS V14.01,2013-01-24 12:46:00,
2013-01-24 07:51:00,40.5,39.5,30.31,ENE,67,0.0,0.0,96,0.00,,CLR,0.00,VWS V14.01,2013-01-24 12:51:00,
2013-01-24 07:56:00,40.6,39.5,30.31,ENE,67,0.0,0.0,96,0.00,,CLR,0.00,VWS V14.01,2013-01-24 12:56:00,
2013-01-24 08:01:00,41.4,40.3,30.31,ENE,67,0.0,0.0,96,0.00,,CLR,0.00,VWS V14.01,2013-01-24 13:01:00,
2013-01-24 08:06:00,41.9,40.8,30.32,ENE,67,0.0,0.0,96,0.00,,CLR,0.00,VWS V14.01,2013-01-24 13:06:00,
2013-01-24 08:11:00,42.3,41.0,30.32,ENE,67,0.0,0.0,95,0.00,,CLR,0.00,VWS V14.01,2013-01-24 13:11:00,
2013-01-24 08:16:00,42.9,41.6,30.32,ENE,67,0.0,0.0,95,0.00,,CLR,0.00,VWS V14.01,2013-01-24 13:16:00,
2013-01-24 08:21:00,43.6,42.0,30.32,ENE,67,0.0,0.0,94,0.00,,CLR,0.00,VWS V14.01,2013-01-24 13:21:00,
2013-01-24 08:26:00,44.2,42.6,30.32,ENE,67,0.0,0.0,94,0.00,,CLR,0.00,VWS V14.01,2013-01-24 13:26:00,
2013-01-24 08:31:00,44.7,43.1,30.32,ENE,67,0.0,0.0,94,0.00,,CLR,0.00,VWS V14.01,2013-01-24 13:31:00,
2013-01-24 08:36:00,45.3,43.1,30.33,ENE,67,0.0,0.0,92,0.00,,CLR,0.00,VWS V14.01,2013-01-24 13:36:00,
2013-01-24 08:41:00,46.0,43.8,30.33,ENE,67,0.0,0.0,92,0.00,,CLR,0.00,VWS V14.01,2013-01-24 13:41:00,
2013-01-24 08:46:00,46.7,44.2,30.33,ENE,67,0.0,0.0,91,0.00,,CLR,0.00,VWS V14.01,2013-01-24 13:46:00,
2013-01-24 08:51:00,47.2,44.4,30.33,ENE,67,0.0,0.0,90,0.00,,CLR,0.00,VWS V14.01,2013-01-24 13:51:00,
2013-01-24 08:56:00,47.8,44.7,30.33,ENE,67,0.0,0.0,89,0.00,,CLR,0.00,VWS V14.01,2013-01-24 13:56:00,
2013-01-24 09:01:00,48.5,45.4,30.33,ENE,67,0.0,0.0,89,0.00,,CLR,0.00,VWS V14.01,2013-01-24 14:01:00,
2013-01-24 09:06:00,49.5,46.1,30.34,ENE,67,0.0,0.0,88,0.00,,CLR,0.00,VWS V14.01,2013-01-24 14:06:00,
2013-01-24 09:12:00,50.5,46.8,30.34,ENE,67,0.0,0.0,87,0.00,,CLR,0.00,VWS V14.01,2013-01-24 14:12:00,
2013-01-24 09:17:00,51.9,47.8,30.34,NNW,344,0.0,0.0,86,0.00,,CLR,0.00,VWS V14.01,2013-01-24 14:17:00,
2013-01-24 09:22:00,53.2,48.5,30.34,NNW,344,0.0,1.0,84,0.00,,CLR,0.00,VWS V14.01,2013-01-24 14:22:00,
2013-01-24 09:27:00,54.3,48.9,30.34,NNW,338,0.0,1.0,82,0.00,,CLR,0.00,VWS V14.01,2013-01-24 14:27:00,
2013-01-24 09:32:00,55.0,49.0,30.35,NNW,339,0.0,0.0,80,0.00,,CLR,0.00,VWS V14.01,2013-01-24 14:32:00,
2013-01-24 09:37:00,56.3,49.5,30.34,WNW,298,0.0,1.0,78,0.00,,CLR,0.00,VWS V14.01,2013-01-24 14:37:00,
2013-01-24 09:42:00,57.2,49.7,30.35,NW,323,0.0,1.0,76,0.00,,CLR,0.00,VWS V14.01,2013-01-24 14:42:00,
2013-01-24 09:47:00,57.6,49.0,30.34,NW,315,1.0,1.0,73,0.00,,CLR,0.00,VWS V14.01,2013-01-24 14:47:00,
2013-01-24 09:52:00,58.7,49.3,30.35,NW,313,0.0,1.0,71,0.00,,CLR,0.00,VWS V14.01,2013-01-24 14:52:00,
2013-01-24 09:57:00,59.3,49.1,30.35,NW,313,0.0,1.0,69,0.00,,CLR,0.00,VWS V14.01,2013-01-24 14:57:00,
2013-01-24 10:02:00,60.1,48.7,30.35,West,281,0.0,7.0,66,0.00,,CLR,0.00,VWS V14.01,2013-01-24 15:02:00,
2013-01-24 10:07:00,60.9,48.2,30.35,WNW,302,4.0,7.0,63,0.00,,CLR,0.00,VWS V14.01,2013-01-24 15:07:00,
2013-01-24 10:12:00,61.8,48.7,30.34,NW,315,0.0,7.0,62,0.00,,CLR,0.00,VWS V14.01,2013-01-24 15:12:00,
2013-01-24 10:17:00,62.4,48.3,30.34,West,266,4.0,7.0,60,0.00,,CLR,0.00,VWS V14.01,2013-01-24 15:17:00,
2013-01-24 10:22:00,62.8,48.3,30.34,WNW,301,0.0,7.0,59,0.00,,CLR,0.00,VWS V14.01,2013-01-24 15:22:00,
2013-01-24 10:27:00,63.7,48.2,30.34,NNW,333,2.0,7.0,57,0.00,,CLR,0.00,VWS V14.01,2013-01-24 15:27:00,
2013-01-24 10:32:00,63.9,47.9,30.34,NW,306,6.0,8.0,56,0.00,,CLR,0.00,VWS V14.01,2013-01-24 15:32:00,
2013-01-24 10:37:00,64.5,48.0,30.34,NW,309,6.0,8.0,55,0.00,,CLR,0.00,VWS V14.01,2013-01-24 15:37:00,
2013-01-24 10:42:00,65.2,48.6,30.34,NW,322,0.0,8.0,55,0.00,,CLR,0.00,VWS V14.01,2013-01-24 15:42:00,
2013-01-24 10:47:00,65.8,48.7,30.35,NW,311,6.0,8.0,54,0.00,,CLR,0.00,VWS V14.01,2013-01-24 15:47:00,
2013-01-24 10:52:00,66.3,48.7,30.35,NW,304,0.0,8.0,53,0.00,,CLR,0.00,VWS V14.01,2013-01-24 15:52:00,
2013-01-24 10:57:00,66.9,49.7,30.35,NW,306,1.0,8.0,54,0.00,,CLR,0.00,VWS V14.01,2013-01-24 15:57:00,
2013-01-24 11:02:00,67.0,49.3,30.35,WNW,303,8.0,11.0,53,0.00,,CLR,0.00,VWS V14.01,2013-01-24 16:02:00,
2013-01-24 11:07:00,67.0,49.3,30.35,NW,305,4.0,11.0,53,0.00,,CLR,0.00,VWS V14.01,2013-01-24 16:07:00,
2013-01-24 11:12:00,67.8,49.5,30.35,NNW,340,6.0,11.0,52,0.00,,CLR,0.00,VWS V14.01,2013-01-24 16:12:00,
2013-01-24 11:17:00,68.5,49.7,30.35,WNW,302,8.0,11.0,51,0.00,,CLR,0.00,VWS V14.01,2013-01-24 16:17:00,
2013-01-24 11:22:00,68.3,49.5,30.34,WNW,302,4.0,11.0,51,0.00,,CLR,0.00,VWS V14.01,2013-01-24 16:22:00,
2013-01-24 11:27:00,69.0,49.6,30.34,North,355,5.0,11.0,50,0.00,,CLR,0.00,VWS V14.01,2013-01-24 16:27:00,
2013-01-24 11:32:00,69.1,49.7,30.34,WNW,300,7.0,12.0,50,0.00,,CLR,0.00,VWS V14.01,2013-01-24 16:32:00,
2013-01-24 11:37:00,69.1,49.7,30.33,NNW,332,7.0,13.0,50,0.00,,CLR,0.00,VWS V14.01,2013-01-24 16:37:00,
2013-01-24 11:42:00,69.1,49.2,30.33,NW,312,0.0,13.0,49,0.00,,CLR,0.00,VWS V14.01,2013-01-24 16:42:00,
2013-01-24 11:47:00,69.8,49.2,30.33,NNW,344,7.0,13.0,48,0.00,,CLR,0.00,VWS V14.01,2013-01-24 16:47:00,
2013-01-24 11:53:00,70.0,49.4,30.32,NW,322,7.0,13.0,48,0.00,,CLR,0.00,VWS V14.01,2013-01-24 16:53:00,
2013-01-24 11:58:00,69.9,49.3,30.32,WNW,292,7.0,13.0,48,0.00,,CLR,0.00,VWS V14.01,2013-01-24 16:58:00,
2013-01-24 12:03:00,70.2,49.6,30.31,NNW,338,0.0,9.0,48,0.00,,CLR,0.00,VWS V14.01,2013-01-24 17:03:00,
2013-01-24 12:08:00,70.3,49.7,30.31,West,271,5.0,9.0,48,0.00,,CLR,0.00,VWS V14.01,2013-01-24 17:08:00,
2013-01-24 12:13:00,70.6,49.4,30.31,WNW,294,0.0,13.0,47,0.00,,CLR,0.00,VWS V14.01,2013-01-24 17:13:00,
2013-01-24 12:18:00,70.7,50.1,30.31,NW,319,9.0,13.0,48,0.00,,CLR,0.00,VWS V14.01,2013-01-24 17:18:00,
2013-01-24 12:23:00,70.9,50.2,30.30,NNW,334,14.0,16.0,48,0.00,,CLR,0.00,VWS V14.01,2013-01-24 17:23:00,
2013-01-24 12:28:00,71.1,49.9,30.30,NW,312,4.0,16.0,47,0.00,,CLR,0.00,VWS V14.01,2013-01-24 17:28:00,
2013-01-24 12:33:00,71.5,50.8,30.30,NW,314,0.0,9.0,48,0.00,,CLR,0.00,VWS V14.01,2013-01-24 17:33:00,
2013-01-24 12:38:00,71.2,50.0,30.29,West,275,4.0,12.0,47,0.00,,CLR,0.00,VWS V14.01,2013-01-24 17:38:00,
2013-01-24 12:43:00,70.8,50.7,30.29,WNW,286,4.0,13.0,49,0.00,,CLR,0.00,VWS V14.01,2013-01-24 17:43:00,
2013-01-24 12:48:00,71.7,50.4,30.29,West,276,1.0,13.0,47,0.00,,CLR,0.00,VWS V14.01,2013-01-24 17:48:00,
2013-01-24 12:53:00,71.5,50.8,30.28,West,267,5.0,13.0,48,0.00,,CLR,0.00,VWS V14.01,2013-01-24 17:53:00,
2013-01-24 12:58:00,71.7,51.0,30.28,West,261,6.0,13.0,48,0.00,,CLR,0.00,VWS V14.01,2013-01-24 17:58:00,
2013-01-24 13:03:00,71.8,51.6,30.28,NNW,330,5.0,5.0,49,0.00,,CLR,0.00,VWS V14.01,2013-01-24 18:03:00,
2013-01-24 13:08:00,73.3,51.9,30.27,NW,315,4.0,9.0,47,0.00,,CLR,0.00,VWS V14.01,2013-01-24 18:08:00,
2013-01-24 13:13:00,71.8,50.5,30.27,West,281,5.0,11.0,47,0.00,,CLR,0.00,VWS V14.01,2013-01-24 18:13:00,
2013-01-24 13:18:00,72.1,50.8,30.27,WNW,295,7.0,14.0,47,0.00,,CLR,0.00,VWS V14.01,2013-01-24 18:18:00,
2013-01-24 13:23:00,72.6,51.2,30.27,NNW,331,4.0,14.0,47,0.00,,CLR,0.00,VWS V14.01,2013-01-24 18:23:00,
2013-01-24 13:28:00,73.2,51.2,30.26,North,355,7.0,14.0,46,0.00,,CLR,0.00,VWS V14.01,2013-01-24 18:28:00,
2013-01-24 13:33:00,73.0,51.6,30.26,NNW,340,5.0,11.0,47,0.00,,CLR,0.00,VWS V14.01,2013-01-24 18:33:00,
2013-01-24 13:38:00,73.8,51.8,30.25,WNW,299,1.0,11.0,46,0.00,,CLR,0.00,VWS V14.01,2013-01-24 18:38:00,
2013-01-24 13:43:00,74.0,51.9,30.25,NNW,338,1.0,11.0,46,0.00,,CLR,0.00,VWS V14.01,2013-01-24 18:43:00,
2013-01-24 13:48:00,73.9,51.8,30.25,NNW,328,6.0,11.0,46,0.00,,CLR,0.00,VWS V14.01,2013-01-24 18:48:00,
2013-01-24 13:53:00,73.2,51.8,30.25,WNW,294,1.0,11.0,47,0.00,,CLR,0.00,VWS V14.01,2013-01-24 18:53:00,
2013-01-24 13:58:00,73.8,51.8,30.25,NW,310,9.0,11.0,46,0.00,,CLR,0.00,VWS V14.01,2013-01-24 18:58:00,
2013-01-24 14:03:00,73.4,51.4,30.25,WSW,241,1.0,9.0,46,0.00,,CLR,0.00,VWS V14.01,2013-01-24 19:03:00,
2013-01-24 14:08:00,74.6,53.1,30.25,NNW,345,7.0,10.0,47,0.00,,CLR,0.00,VWS V14.01,2013-01-24 19:08:00,
2013-01-24 14:13:00,74.7,52.0,30.25,NW,318,0.0,10.0,45,0.00,,CLR,0.00,VWS V14.01,2013-01-24 19:13:00,
2013-01-24 14:18:00,73.2,51.8,30.24,NNW,341,5.0,10.0,47,0.00,,CLR,0.00,VWS V14.01,2013-01-24 19:18:00,
2013-01-24 14:23:00,73.9,51.8,30.25,West,269,5.0,13.0,46,0.00,,CLR,0.00,VWS V14.01,2013-01-24 19:23:00,
2013-01-24 14:28:00,73.3,51.9,30.25,NW,315,5.0,13.0,47,0.00,,CLR,0.00,VWS V14.01,2013-01-24 19:28:00,
2013-01-24 14:33:00,75.1,52.3,30.25,NNW,348,7.0,8.0,45,0.00,,CLR,0.00,VWS V14.01,2013-01-24 19:33:00,
2013-01-24 14:38:00,74.9,52.2,30.24,NW,312,5.0,9.0,45,0.00,,CLR,0.00,VWS V14.01,2013-01-24 19:38:00,
2013-01-24 14:44:00,74.6,51.9,30.24,NW,310,7.0,9.0,45,0.00,,CLR,0.00,VWS V14.01,2013-01-24 19:44:00,
2013-01-24 14:49:00,73.8,51.2,30.24,NNW,327,6.0,9.0,45,0.00,,CLR,0.00,VWS V14.01,2013-01-24 19:49:00,
2013-01-24 14:54:00,74.6,51.9,30.24,NNW,342,6.0,13.0,45,0.00,,CLR,0.00,VWS V14.01,2013-01-24 19:54:00,
2013-01-24 14:59:00,75.1,52.3,30.24,NNE,12,1.0,13.0,45,0.00,,CLR,0.00,VWS V14.01,2013-01-24 19:59:00,
2013-01-24 15:04:00,75.2,51.2,30.24,WNW,292,1.0,9.0,43,0.00,,CLR,0.00,VWS V14.01,2013-01-24 20:04:00,
2013-01-24 15:09:00,74.1,52.0,30.23,NW,313,6.0,10.0,46,0.00,,CLR,0.00,VWS V14.01,2013-01-24 20:09:00,
2013-01-24 15:14:00,74.0,52.5,30.24,West,277,5.0,10.0,47,0.00,,CLR,0.00,VWS V14.01,2013-01-24 20:14:00,
2013-01-24 15:19:00,74.1,52.0,30.24,WNW,291,1.0,10.0,46,0.00,,CLR,0.00,VWS V14.01,2013-01-24 20:19:00,
2013-01-24 15:24:00,75.0,51.0,30.23,NW,310,0.0,10.0,43,0.00,,CLR,0.00,VWS V14.01,2013-01-24 20:24:00,
2013-01-24 15:29:00,74.5,51.2,30.23,WNW,294,6.0,10.0,44,0.00,,CLR,0.00,VWS V14.01,2013-01-24 20:29:00,
2013-01-24 15:34:00,73.1,51.7,30.24,North,350,6.0,6.0,47,0.00,,CLR,0.00,VWS V14.01,2013-01-24 20:34:00,
2013-01-24 15:39:00,72.5,50.6,30.24,NNW,331,5.0,8.0,46,0.00,,CLR,0.00,VWS V14.01,2013-01-24 20:39:00,
2013-01-24 15:44:00,71.7,51.5,30.24,NNW,341,4.0,10.0,49,0.00,,CLR,0.00,VWS V14.01,2013-01-24 20:44:00,
2013-01-24 15:49:00,71.6,51.5,30.24,NNW,333,0.0,10.0,49,0.00,,CLR,0.00,VWS V14.01,2013-01-24 20:49:00,
2013-01-24 15:54:00,71.4,51.3,30.24,NW,311,2.0,10.0,49,0.00,,CLR,0.00,VWS V14.01,2013-01-24 20:54:00,
2013-01-24 15:59:00,71.3,51.2,30.24,NW,304,5.0,10.0,49,0.00,,CLR,0.00,VWS V14.01,2013-01-24 20:59:00,
2013-01-24 16:04:00,70.6,50.5,30.24,NW,314,2.0,8.0,49,0.00,,CLR,0.00,VWS V14.01,2013-01-24 21:04:00,
2013-01-24 16:09:00,70.3,50.8,30.24,NW,315,1.0,8.0,50,0.00,,CLR,0.00,VWS V14.01,2013-01-24 21:09:00,
2013-01-24 16:14:00,69.8,50.9,30.24,NW,311,0.0,8.0,51,0.00,,CLR,0.00,VWS V14.01,2013-01-24 21:14:00,
2013-01-24 16:19:00,69.5,51.1,30.23,WNW,291,0.0,8.0,52,0.00,,CLR,0.00,VWS V14.01,2013-01-24 21:19:00,
2013-01-24 16:24:00,69.2,51.4,30.23,West,262,3.0,8.0,53,0.00,,CLR,0.00,VWS V14.01,2013-01-24 21:24:00,
2013-01-24 16:29:00,68.8,51.5,30.24,West,281,0.0,8.0,54,0.00,,CLR,0.00,VWS V14.01,2013-01-24 21:29:00,
2013-01-24 16:34:00,68.7,51.4,30.23,WNW,291,0.0,1.0,54,0.00,,CLR,0.00,VWS V14.01,2013-01-24 21:34:00,
2013-01-24 16:39:00,68.5,51.2,30.23,WNW,291,0.0,1.0,54,0.00,,CLR,0.00,VWS V14.01,2013-01-24 21:39:00,
2013-01-24 16:44:00,68.5,51.2,30.23,WNW,291,0.0,1.0,54,0.00,,CLR,0.00,VWS V14.01,2013-01-24 21:44:00,
2013-01-24 16:49:00,68.6,51.3,30.23,WNW,291,0.0,1.0,54,0.00,,CLR,0.00,VWS V14.01,2013-01-24 21:49:00,
2013-01-24 16:54:00,69.1,51.3,30.23,WNW,298,0.0,1.0,53,0.00,,CLR,0.00,VWS V14.01,2013-01-24 21:54:00,
2013-01-24 16:59:00,69.8,51.4,30.23,NW,304,0.0,1.0,52,0.00,,CLR,0.00,VWS V14.01,2013-01-24 21:59:00,
2013-01-24 17:04:00,70.5,52.0,30.23,NNW,334,0.0,6.0,52,0.00,,CLR,0.00,VWS V14.01,2013-01-24 22:04:00,
2013-01-24 17:09:00,70.8,51.8,30.23,NW,320,0.0,6.0,51,0.00,,CLR,0.00,VWS V14.01,2013-01-24 22:09:00,
2013-01-24 17:14:00,70.5,51.5,30.23,WNW,299,8.0,8.0,51,0.00,,CLR,0.00,VWS V14.01,2013-01-24 22:14:00,
2013-01-24 17:19:00,70.2,53.3,30.24,WNW,282,4.0,15.0,55,0.00,,CLR,0.00,VWS V14.01,2013-01-24 22:19:00,
2013-01-24 17:24:00,69.8,53.9,30.24,West,269,1.0,15.0,57,0.00,,CLR,0.00,VWS V14.01,2013-01-24 22:24:00,
2013-01-24 17:29:00,69.5,54.1,30.24,WNW,289,5.0,15.0,58,0.00,,CLR,0.00,VWS V14.01,2013-01-24 22:29:00,
2013-01-24 17:34:00,69.3,54.4,30.24,WNW,299,4.0,8.0,59,0.00,,CLR,0.00,VWS V14.01,2013-01-24 22:34:00,
2013-01-24 17:40:00,68.8,54.4,30.24,West,273,0.0,8.0,60,0.00,,CLR,0.00,VWS V14.01,2013-01-24 22:40:00,
2013-01-24 17:45:00,68.3,54.8,30.24,West,269,4.0,11.0,62,0.00,,CLR,0.00,VWS V14.01,2013-01-24 22:45:00,
2013-01-24 17:50:00,67.9,54.4,30.24,West,261,4.0,11.0,62,0.00,,CLR,0.00,VWS V14.01,2013-01-24 22:50:00,
2013-01-24 17:55:00,67.6,54.6,30.25,WSW,248,5.0,11.0,63,0.00,,CLR,0.00,VWS V14.01,2013-01-24 22:55:00,
2013-01-24 18:00:00,67.2,54.6,30.25,West,261,4.0,8.0,64,0.00,,CLR,0.00,VWS V14.01,2013-01-24 23:00:00,
2013-01-24 18:05:00,66.7,54.6,30.25,West,263,6.0,8.0,65,0.00,,CLR,0.00,VWS V14.01,2013-01-24 23:05:00,
2013-01-24 18:10:00,66.2,54.5,30.25,West,265,3.0,8.0,66,0.00,,CLR,0.00,VWS V14.01,2013-01-24 23:10:00,
2013-01-24 18:15:00,65.7,54.5,30.25,West,277,6.0,8.0,67,0.00,,CLR,0.00,VWS V14.01,2013-01-24 23:15:00,
2013-01-24 18:20:00,65.4,54.6,30.25,West,270,4.0,8.0,68,0.00,,CLR,0.00,VWS V14.01,2013-01-24 23:20:00,
2013-01-24 18:25:00,65.0,54.6,30.26,West,267,1.0,8.0,69,0.00,,CLR,0.00,VWS V14.01,2013-01-24 23:25:00,
2013-01-24 18:30:00,64.6,54.6,30.25,West,272,5.0,6.0,70,0.00,,CLR,0.00,VWS V14.01,2013-01-24 23:30:00,
2013-01-24 18:35:00,64.3,54.3,30.26,West,266,2.0,6.0,70,0.00,,CLR,0.00,VWS V14.01,2013-01-24 23:35:00,
2013-01-24 18:40:00,64.0,54.4,30.26,West,263,0.0,6.0,71,0.00,,CLR,0.00,VWS V14.01,2013-01-24 23:40:00,
2013-01-24 18:45:00,63.6,54.4,30.26,West,266,0.0,6.0,72,0.00,,CLR,0.00,VWS V14.01,2013-01-24 23:45:00,
2013-01-24 18:50:00,63.2,54.0,30.26,SW,236,0.0,6.0,72,0.00,,CLR,0.00,VWS V14.01,2013-01-24 23:50:00,
2013-01-24 18:55:00,62.9,54.1,30.26,WSW,258,3.0,6.0,73,0.00,,CLR,0.00,VWS V14.01,2013-01-24 23:55:00,
2013-01-24 19:00:00,62.6,53.8,30.26,WSW,251,3.0,3.0,73,0.00,,CLR,0.00,VWS V14.01,2013-01-25 00:00:00,
2013-01-24 19:05:00,62.2,53.8,30.27,West,268,0.0,3.0,74,0.00,,CLR,0.00,VWS V14.01,2013-01-25 00:05:00,
2013-01-24 19:10:00,61.9,53.9,30.27,West,270,0.0,3.0,75,0.00,,CLR,0.00,VWS V14.01,2013-01-25 00:10:00,
2013-01-24 19:15:00,61.5,53.9,30.27,West,269,0.0,3.0,76,0.00,,CLR,0.00,VWS V14.01,2013-01-25 00:15:00,
2013-01-24 19:20:00,61.2,53.6,30.27,West,269,0.0,3.0,76,0.00,,CLR,0.00,VWS V14.01,2013-01-25 00:20:00,
2013-01-24 19:25:00,60.8,53.5,30.27,West,267,1.0,3.0,77,0.00,,CLR,0.00,VWS V14.01,2013-01-25 00:25:00,
2013-01-24 19:30:00,60.6,53.7,30.27,West,271,0.0,2.0,78,0.00,,CLR,0.00,VWS V14.01,2013-01-25 00:30:00,
2013-01-24 19:35:00,60.4,53.9,30.27,West,270,0.0,4.0,79,0.00,,CLR,0.00,VWS V14.01,2013-01-25 00:35:00,
2013-01-24 19:40:00,60.1,53.9,30.27,West,271,0.0,4.0,80,0.00,,CLR,0.00,VWS V14.01,2013-01-25 00:40:00,
2013-01-24 19:45:00,59.7,53.9,30.27,West,271,0.0,4.0,81,0.00,,CLR,0.00,VWS V14.01,2013-01-25 00:45:00,
2013-01-24 19:50:00,59.3,53.8,30.27,West,271,0.0,4.0,82,0.00,,CLR,0.00,VWS V14.01,2013-01-25 00:50:00,
2013-01-24 19:55:00,59.0,53.5,30.27,West,269,0.0,4.0,82,0.00,,CLR,0.00,VWS V14.01,2013-01-25 00:55:00,
2013-01-24 20:00:00,58.6,53.5,30.27,West,270,0.0,0.0,83,0.00,,CLR,0.00,VWS V14.01,2013-01-25 01:00:00,
2013-01-24 20:05:00,58.4,53.6,30.28,West,269,0.0,0.0,84,0.00,,CLR,0.00,VWS V14.01,2013-01-25 01:05:00,
2013-01-24 20:10:00,58.2,53.4,30.28,West,270,0.0,0.0,84,0.00,,CLR,0.00,VWS V14.01,2013-01-25 01:10:00,
2013-01-24 20:15:00,58.0,53.5,30.28,West,265,0.0,2.0,85,0.00,,CLR,0.00,VWS V14.01,2013-01-25 01:15:00,
2013-01-24 20:20:00,57.4,52.9,30.28,West,265,0.0,2.0,85,0.00,,CLR,0.00,VWS V14.01,2013-01-25 01:20:00,
2013-01-24 20:25:00,57.0,52.9,30.28,West,265,0.0,2.0,86,0.00,,CLR,0.00,VWS V14.01,2013-01-25 01:25:00,
2013-01-24 20:30:00,56.7,52.9,30.28,West,265,0.0,0.0,87,0.00,,CLR,0.00,VWS V14.01,2013-01-25 01:30:00,
2013-01-24 20:36:00,56.5,52.7,30.28,West,265,0.0,0.0,87,0.00,,CLR,0.00,VWS V14.01,2013-01-25 01:36:00,
2013-01-24 20:41:00,56.2,52.7,30.28,West,265,0.0,0.0,88,0.00,,CLR,0.00,VWS V14.01,2013-01-25 01:41:00,
2013-01-24 20:46:00,55.6,52.4,30.28,West,265,0.0,0.0,89,0.00,,CLR,0.00,VWS V14.01,2013-01-25 01:46:00,
2013-01-24 20:51:00,54.9,52.0,30.28,West,265,0.0,0.0,90,0.00,,CLR,0.00,VWS V14.01,2013-01-25 01:51:00,
2013-01-24 20:56:00,54.7,51.8,30.28,West,265,0.0,0.0,90,0.00,,CLR,0.00,VWS V14.01,2013-01-25 01:56:00,
2013-01-24 21:01:00,54.9,52.3,30.29,West,265,0.0,0.0,91,0.00,,CLR,0.00,VWS V14.01,2013-01-25 02:01:00,
2013-01-24 21:06:00,55.1,52.5,30.29,West,265,0.0,0.0,91,0.00,,CLR,0.00,VWS V14.01,2013-01-25 02:06:00,
2013-01-24 21:11:00,55.2,52.6,30.29,West,265,0.0,0.0,91,0.00,,CLR,0.00,VWS V14.01,2013-01-25 02:11:00,
2013-01-24 21:16:00,55.1,52.5,30.29,West,265,0.0,0.0,91,0.00,,CLR,0.00,VWS V14.01,2013-01-25 02:16:00,
2013-01-24 21:21:00,55.0,52.4,30.28,West,265,0.0,0.0,91,0.00,,CLR,0.00,VWS V14.01,2013-01-25 02:21:00,
2013-01-24 21:26:00,54.5,51.9,30.28,West,265,0.0,0.0,91,0.00,,CLR,0.00,VWS V14.01,2013-01-25 02:26:00,
2013-01-24 21:31:00,54.0,51.7,30.28,West,265,0.0,0.0,92,0.00,,CLR,0.00,VWS V14.01,2013-01-25 02:31:00,
2013-01-24 21:36:00,53.8,51.8,30.29,West,265,0.0,0.0,93,0.00,,CLR,0.00,VWS V14.01,2013-01-25 02:36:00,
2013-01-24 21:41:00,53.8,51.8,30.29,West,265,0.0,0.0,93,0.00,,CLR,0.00,VWS V14.01,2013-01-25 02:41:00,
2013-01-24 21:46:00,53.6,51.6,30.29,West,265,0.0,0.0,93,0.00,,CLR,0.00,VWS V14.01,2013-01-25 02:46:00,
2013-01-24 21:51:00,53.5,51.5,30.29,West,265,0.0,0.0,93,0.00,,CLR,0.00,VWS V14.01,2013-01-25 02:51:00,
2013-01-24 21:56:00,53.3,51.6,30.29,West,265,0.0,0.0,94,0.00,,CLR,0.00,VWS V14.01,2013-01-25 02:56:00,
2013-01-24 22:01:00,53.1,51.4,30.29,West,265,0.0,0.0,94,0.00,,CLR,0.00,VWS V14.01,2013-01-25 03:01:00,
2013-01-24 22:06:00,53.0,51.3,30.29,West,265,0.0,0.0,94,0.00,,CLR,0.00,VWS V14.01,2013-01-25 03:06:00,
2013-01-24 22:11:00,52.5,50.8,30.29,West,265,0.0,0.0,94,0.00,,CLR,0.00,VWS V14.01,2013-01-25 03:11:00,
2013-01-24 22:16:00,52.3,50.9,30.29,West,265,0.0,0.0,95,0.00,,CLR,0.00,VWS V14.01,2013-01-25 03:16:00,
2013-01-24 22:21:00,52.2,50.8,30.29,West,265,0.0,0.0,95,0.00,,CLR,0.00,VWS V14.01,2013-01-25 03:21:00,
2013-01-24 22:26:00,52.1,50.7,30.29,West,265,0.0,0.0,95,0.00,,CLR,0.00,VWS V14.01,2013-01-25 03:26:00,
2013-01-24 22:31:00,51.9,50.5,30.29,West,265,0.0,0.0,95,0.00,,CLR,0.00,VWS V14.01,2013-01-25 03:31:00,
2013-01-24 22:36:00,51.7,50.3,30.29,West,265,0.0,0.0,95,0.00,,CLR,0.00,VWS V14.01,2013-01-25 03:36:00,
2013-01-24 22:41:00,51.4,50.0,30.29,West,265,0.0,0.0,95,0.00,,CLR,0.00,VWS V14.01,2013-01-25 03:41:00,
2013-01-24 22:46:00,51.6,50.2,30.29,West,265,0.0,0.0,95,0.00,,CLR,0.00,VWS V14.01,2013-01-25 03:46:00,
2013-01-24 22:51:00,51.7,50.6,30.30,West,265,0.0,0.0,96,0.00,,CLR,0.00,VWS V14.01,2013-01-25 03:51:00,
2013-01-24 22:56:00,51.5,50.1,30.30,West,265,0.0,0.0,95,0.00,,CLR,0.00,VWS V14.01,2013-01-25 03:56:00,
2013-01-24 23:01:00,51.2,49.8,30.30,West,265,0.0,0.0,95,0.00,,CLR,0.00,VWS V14.01,2013-01-25 04:01:00,
2013-01-24 23:06:00,51.4,50.3,30.30,West,265,0.0,0.0,96,0.00,,CLR,0.00,VWS V14.01,2013-01-25 04:06:00,
2013-01-24 23:11:00,51.3,50.2,30.30,West,265,0.0,0.0,96,0.00,,CLR,0.00,VWS V14.01,2013-01-25 04:11:00,
2013-01-24 23:16:00,51.2,50.1,30.30,West,265,0.0,0.0,96,0.00,,CLR,0.00,VWS V14.01,2013-01-25 04:16:00,
2013-01-24 23:21:00,51.1,50.0,30.30,West,265,0.0,0.0,96,0.00,,CLR,0.00,VWS V14.01,2013-01-25 04:21:00,
2013-01-24 23:26:00,51.4,50.3,30.30,West,265,0.0,0.0,96,0.00,,CLR,0.00,VWS V14.01,2013-01-25 04:26:00,
2013-01-24 23:32:00,51.7,50.6,30.30,West,265,0.0,0.0,96,0.00,,CLR,0.00,VWS V14.01,2013-01-25 04:32:00,
2013-01-24 23:37:00,51.7,50.6,30.30,West,265,0.0,0.0,96,0.00,,CLR,0.00,VWS V14.01,2013-01-25 04:37:00,
2013-01-24 23:42:00,51.8,50.7,30.30,West,265,0.0,0.0,96,0.00,,CLR,0.00,VWS V14.01,2013-01-25 04:42:00,
2013-01-24 23:47:00,51.8,50.7,30.31,West,265,0.0,0.0,96,0.00,,CLR,0.00,VWS V14.01,2013-01-25 04:47:00,
2013-01-24 23:52:00,51.9,50.8,30.31,West,265,0.0,0.0,96,0.00,,CLR,0.00,VWS V14.01,2013-01-25 04:52:00,
2013-01-24 23:57:00,51.9,50.8,30.30,West,265,0.0,0.0,96,0.00,,CLR,0.00,VWS V14.01,2013-01-25 04:57:00,